Assateague Island Natl Seashore, Maryland
Current Conditions -  °F | °C
As of 2:53 AM on Sunday 21 Dec 2014 (Local Time) from KOXB Reporting Station
Overcast Overcast  
Wind Chill: 30°   Ceiling: 8500
Heat Index: 30°   Visibility: 7mi
Dew Point: 26°   Wind: 3mph
Humidity: 85%   Direction: 330°NNW
Pressure: 30.3"   Gusts: NA
Location:  38.12°N, 75.19°W
Report Text: KOXB 210753Z AUTO 33003KT 7SM OVC085 M01/M03 A3030 RMK AO2 SLP259 T10111033 TSNO
Loading
Personal Weather Stations






























Interactive Weather Map New forecast layout! Learn more

10-Day Weather Forecast

Advertisements
Track Severe Weather on mobile